Time;durP1;ratioP1;P1;durP2;ratioP2;P2;SDS_P1;SDS_P2;PMS_P1;PMS_P2;Temp;Humidity;BMP_temperature;BMP_pressure;BME280_temperature;BME280_humidity;BME280_pressure;Samples;Min_cycle;Max_cycle;Signal;HPM_P1;HPM_P2
2023/06/01 00:00:55;;;;;;;7.55;3.95;;;17.40;98.30;;;;;;2091723;28;20503;-71
2023/06/01 00:01:56;;;;;;;6.30;3.47;;;17.40;99.00;;;;;;2091649;28;20036;-71
2023/06/01 00:02:56;;;;;;;8.25;3.95;;;17.40;99.10;;;;;;2088622;28;20029;-71
2023/06/01 00:03:57;;;;;;;8.18;4.45;;;17.40;99.80;;;;;;2090999;28;20128;-71
2023/06/01 00:04:57;;;;;;;5.57;2.97;;;17.40;99.90;;;;;;2092566;28;20032;-71
2023/06/01 00:05:58;;;;;;;8.65;3.90;;;17.30;99.40;;;;;;2090916;28;20028;-71
2023/06/01 00:07:02;;;;;;;5.55;3.28;;;17.30;99.90;;;;;;2089979;28;20024;-71
2023/06/01 00:08:04;;;;;;;5.65;3.38;;;17.30;99.90;;;;;;2090401;28;20028;-71
2023/06/01 00:09:05;;;;;;;7.57;3.88;;;17.30;99.90;;;;;;2090566;28;20035;-71
2023/06/01 00:10:06;;;;;;;7.18;4.32;;;17.20;99.90;;;;;;2088962;28;20058;-72
2023/06/01 00:11:06;;;;;;;5.75;4.55;;;17.30;99.90;;;;;;2092793;28;20016;-71
2023/06/01 00:12:08;;;;;;;10.48;4.55;;;17.20;99.90;;;;;;2094079;28;20127;-71
2023/06/01 00:13:08;;;;;;;6.88;4.40;;;17.20;99.90;;;;;;2092272;28;20078;-71
2023/06/01 00:14:09;;;;;;;5.90;4.13;;;17.10;99.90;;;;;;2090409;28;20029;-71
2023/06/01 00:15:10;;;;;;;6.95;4.10;;;17.10;99.90;;;;;;2089060;28;20067;-71
2023/06/01 00:16:12;;;;;;;9.20;4.10;;;17.10;99.90;;;;;;2091468;28;20028;-71
2023/06/01 00:17:12;;;;;;;9.18;4.75;;;17.10;99.90;;;;;;2090881;28;20032;-71
2023/06/01 00:18:15;;;;;;;5.57;3.40;;;17.10;99.90;;;;;;2090890;28;20107;-71
2023/06/01 00:19:15;;;;;;;8.15;4.47;;;17.00;99.90;;;;;;2093931;28;20035;-71
2023/06/01 00:20:17;;;;;;;6.65;3.60;;;17.00;99.90;;;;;;2093820;28;20099;-71
2023/06/01 00:21:18;;;;;;;6.40;4.15;;;17.00;99.90;;;;;;2093471;28;20027;-71
2023/06/01 00:22:19;;;;;;;6.07;2.92;;;17.00;99.90;;;;;;2094176;28;20021;-71
2023/06/01 00:23:19;;;;;;;7.47;4.32;;;17.00;99.90;;;;;;2090500;28;20123;-71
2023/06/01 00:24:21;;;;;;;8.65;5.03;;;17.00;99.90;;;;;;2092935;28;20066;-71
2023/06/01 00:25:21;;;;;;;10.23;4.80;;;16.90;99.90;;;;;;2089842;28;20033;-71
2023/06/01 00:26:22;;;;;;;6.75;4.82;;;16.90;99.90;;;;;;2091377;28;20049;-71
2023/06/01 00:27:22;;;;;;;10.38;5.25;;;16.90;99.90;;;;;;2091390;28;20111;-71
2023/06/01 00:28:23;;;;;;;5.82;4.00;;;16.90;99.90;;;;;;2093615;28;20504;-71
2023/06/01 00:29:23;;;;;;;11.32;5.10;;;16.80;99.90;;;;;;2092351;28;20458;-71
2023/06/01 00:30:24;;;;;;;5.90;3.70;;;16.80;99.90;;;;;;2095086;28;20029;-71
2023/06/01 00:31:25;;;;;;;5.65;4.07;;;16.80;99.90;;;;;;2097590;28;20032;-71
2023/06/01 00:32:25;;;;;;;8.15;5.25;;;16.80;99.90;;;;;;2092892;28;20048;-71
2023/06/01 00:33:26;;;;;;;6.03;3.72;;;16.80;99.90;;;;;;2092511;28;20029;-71
2023/06/01 00:34:26;;;;;;;9.55;4.78;;;16.80;99.90;;;;;;2095932;28;20154;-71
2023/06/01 00:35:27;;;;;;;6.10;3.70;;;16.80;99.90;;;;;;2094478;28;20059;-71
2023/06/01 00:36:27;;;;;;;6.57;4.50;;;16.80;99.90;;;;;;2092626;28;20079;-71
2023/06/01 00:37:28;;;;;;;10.38;4.80;;;16.70;99.90;;;;;;2091821;28;20146;-71
2023/06/01 00:38:29;;;;;;;7.90;5.05;;;16.70;99.90;;;;;;2093185;28;20028;-71
2023/06/01 00:39:29;;;;;;;8.70;5.70;;;16.70;99.90;;;;;;2094229;28;20031;-71
2023/06/01 00:40:30;;;;;;;10.73;6.10;;;16.70;99.90;;;;;;2094658;28;20044;-71
2023/06/01 00:41:32;;;;;;;5.43;4.18;;;16.70;99.90;;;;;;2094465;28;20123;-71
2023/06/01 00:42:32;;;;;;;6.90;4.75;;;16.70;99.90;;;;;;2091687;28;20484;-71
2023/06/01 00:43:33;;;;;;;9.20;5.38;;;16.70;99.90;;;;;;2092487;28;20439;-71
2023/06/01 00:44:33;;;;;;;7.22;5.53;;;16.60;99.90;;;;;;2091176;28;20047;-71
2023/06/01 00:45:34;;;;;;;6.20;4.28;;;16.60;99.90;;;;;;2090886;28;20017;-71
2023/06/01 00:46:37;;;;;;;7.68;4.55;;;16.60;99.90;;;;;;2091351;28;20467;-71
2023/06/01 00:47:42;;;;;;;7.47;4.55;;;16.60;99.90;;;;;;2093171;28;20032;-71
2023/06/01 00:48:43;;;;;;;8.00;5.32;;;16.60;99.90;;;;;;2091882;28;20708;-71
2023/06/01 00:49:43;;;;;;;7.22;4.80;;;16.60;99.90;;;;;;2091639;28;20032;-71
2023/06/01 00:50:44;;;;;;;8.40;5.03;;;16.50;99.90;;;;;;2091998;28;20036;-71
2023/06/01 00:51:44;;;;;;;7.45;4.68;;;16.50;99.90;;;;;;2092520;28;20040;-71
2023/06/01 00:52:48;;;;;;;7.65;5.72;;;16.50;99.90;;;;;;2092606;28;20480;-71
2023/06/01 00:53:49;;;;;;;8.25;5.10;;;16.50;99.90;;;;;;2092445;28;20081;-71
2023/06/01 00:54:50;;;;;;;8.90;5.57;;;16.50;99.90;;;;;;2091902;28;20115;-71
2023/06/01 00:55:50;;;;;;;7.70;5.93;;;16.40;99.90;;;;;;2091185;28;20033;-71
2023/06/01 00:56:52;;;;;;;10.95;6.28;;;16.50;99.90;;;;;;2092480;28;20029;-71
2023/06/01 00:57:54;;;;;;;9.50;5.97;;;16.40;99.90;;;;;;2091839;28;20059;-71
2023/06/01 00:58:55;;;;;;;8.38;6.70;;;16.50;99.90;;;;;;2093371;28;20096;-71
2023/06/01 00:59:57;;;;;;;8.82;5.55;;;16.40;99.90;;;;;;2091438;28;20029;-71
2023/06/01 01:00:57;;;;;;;7.03;5.95;;;16.40;99.90;;;;;;2092337;28;20040;-72
2023/06/01 01:01:58;;;;;;;7.05;5.28;;;16.30;99.90;;;;;;2092895;28;20479;-72
2023/06/01 01:03:00;;;;;;;4.97;4.13;;;16.30;99.90;;;;;;2092100;28;20067;-72
2023/06/01 01:04:01;;;;;;;6.15;4.03;;;16.30;99.90;;;;;;2095551;28;20048;-72
2023/06/01 01:05:02;;;;;;;11.30;5.53;;;16.30;99.90;;;;;;2091239;28;20396;-72
2023/06/01 01:06:11;;;;;;;8.05;4.72;;;16.30;99.90;;;;;;2092750;28;20025;-72
2023/06/01 01:07:38;;;;;;;9.20;5.35;;;16.30;99.90;;;;;;2093185;28;20020;-72
2023/06/01 01:09:10;;;;;;;7.10;5.07;;;16.20;99.90;;;;;;2091152;28;20542;-72
2023/06/01 01:10:15;;;;;;;6.03;5.40;;;16.20;99.90;;;;;;2097252;28;20032;-72
2023/06/01 01:11:26;;;;;;;9.30;5.47;;;16.20;99.90;;;;;;2089506;28;20016;-72
2023/06/01 01:12:53;;;;;;;6.88;4.68;;;16.20;99.90;;;;;;2092150;28;20139;-72
2023/06/01 01:14:11;;;;;;;9.23;6.32;;;16.10;99.90;;;;;;2093626;28;20020;-72
2023/06/01 01:15:25;;;;;;;10.38;6.15;;;16.10;99.90;;;;;;2091824;28;20025;-72
2023/06/01 01:16:30;;;;;;;7.10;5.50;;;16.10;99.90;;;;;;2090101;28;20074;-72
2023/06/01 01:17:38;;;;;;;7.47;5.97;;;16.00;99.90;;;;;;2092388;28;20414;-72
2023/06/01 01:19:00;;;;;;;8.02;5.63;;;16.00;99.90;;;;;;2090520;28;20046;-72
2023/06/01 01:20:12;;;;;;;8.90;5.68;;;16.00;99.90;;;;;;2091195;28;20025;-72
2023/06/01 01:21:28;;;;;;;6.43;4.93;;;16.00;99.90;;;;;;2091986;28;20028;-72
2023/06/01 01:22:47;;;;;;;8.48;5.72;;;16.00;99.90;;;;;;2090564;28;20054;-72
2023/06/01 01:24:12;;;;;;;8.02;5.32;;;16.00;99.90;;;;;;2092087;28;20016;-72
2023/06/01 01:25:27;;;;;;;7.57;5.13;;;15.90;99.90;;;;;;2091345;28;20528;-72
2023/06/01 01:27:08;;;;;;;8.45;5.57;;;15.90;99.90;;;;;;2093060;28;20116;-72
2023/06/01 01:28:23;;;;;;;9.32;6.60;;;15.80;99.90;;;;;;2091262;28;20070;-72
2023/06/01 01:29:26;;;;;;;9.60;7.22;;;15.80;99.90;;;;;;2091849;28;20032;-72
2023/06/01 01:30:29;;;;;;;6.88;6.03;;;15.80;99.90;;;;;;2091662;28;20093;-72
2023/06/01 01:31:32;;;;;;;9.68;7.50;;;15.80;99.90;;;;;;2092469;28;20032;-72
2023/06/01 01:32:35;;;;;;;8.90;6.10;;;15.80;99.90;;;;;;2090874;28;20025;-72
2023/06/01 01:33:37;;;;;;;11.93;6.18;;;15.80;99.90;;;;;;2092020;28;20571;-72
2023/06/01 01:34:38;;;;;;;7.88;6.53;;;15.70;99.90;;;;;;2094655;28;20025;-72
2023/06/01 01:35:39;;;;;;;6.43;5.72;;;15.70;99.90;;;;;;2082223;28;20028;-72
2023/06/01 01:36:41;;;;;;;9.07;6.95;;;15.70;99.90;;;;;;2090096;28;20026;-72
2023/06/01 01:37:54;;;;;;;11.90;8.20;;;15.70;99.90;;;;;;2090124;28;20031;-72
2023/06/01 01:38:55;;;;;;;9.85;8.15;;;15.70;99.90;;;;;;2090875;28;20234;-72
2023/06/01 01:39:56;;;;;;;10.50;7.63;;;15.60;99.90;;;;;;2092431;28;20032;-72
2023/06/01 01:40:56;;;;;;;11.07;7.72;;;15.60;99.90;;;;;;2091866;28;20107;-72
2023/06/01 01:41:57;;;;;;;10.38;7.82;;;15.60;99.90;;;;;;2092463;28;20029;-72
2023/06/01 01:42:58;;;;;;;8.20;6.40;;;15.60;99.90;;;;;;2092211;28;20052;-72
2023/06/01 01:43:59;;;;;;;8.88;6.90;;;15.60;99.90;;;;;;2091497;28;20032;-72
2023/06/01 01:44:59;;;;;;;10.80;7.10;;;15.60;99.90;;;;;;2091411;28;20055;-72
2023/06/01 01:46:25;;;;;;;9.52;7.43;;;15.50;99.90;;;;;;2095772;28;20089;-72
2023/06/01 01:47:55;;;;;;;10.05;7.80;;;15.50;99.90;;;;;;2097695;28;20081;-72
2023/06/01 01:49:29;;;;;;;12.55;8.80;;;15.50;99.90;;;;;;2096249;28;20503;-72
2023/06/01 01:50:37;;;;;;;10.82;8.27;;;15.40;99.90;;;;;;2092532;28;20094;-72
2023/06/01 01:52:02;;;;;;;11.00;8.07;;;15.40;99.90;;;;;;2094134;28;20716;-72
2023/06/01 01:53:06;;;;;;;12.80;8.95;;;15.40;99.90;;;;;;2089707;28;20550;-72
2023/06/01 01:54:10;;;;;;;13.00;9.18;;;15.30;99.90;;;;;;2091163;28;20071;-72
2023/06/01 01:55:12;;;;;;;11.73;8.25;;;15.30;99.90;;;;;;2091408;28;20142;-72
2023/06/01 01:56:13;;;;;;;10.32;8.75;;;15.20;99.90;;;;;;2092661;28;20028;-72
2023/06/01 01:57:15;;;;;;;10.10;6.15;;;15.20;99.90;;;;;;2091842;28;20103;-72
2023/06/01 01:58:16;;;;;;;11.82;7.70;;;15.20;99.90;;;;;;2094881;28;20070;-72
2023/06/01 01:59:17;;;;;;;12.48;9.30;;;15.20;99.90;;;;;;2082901;28;20078;-72
2023/06/01 02:00:19;;;;;;;11.35;8.85;;;15.20;99.90;;;;;;2088500;28;20050;-72
2023/06/01 02:01:20;;;;;;;10.65;8.55;;;15.20;99.90;;;;;;2090848;28;20013;-72
2023/06/01 02:02:21;;;;;;;14.93;9.27;;;15.20;99.90;;;;;;2090579;28;20028;-72
2023/06/01 02:03:21;;;;;;;11.15;8.25;;;15.10;99.90;;;;;;2093406;28;20489;-72
2023/06/01 02:04:22;;;;;;;10.55;8.65;;;15.10;99.90;;;;;;2096409;28;20037;-72
2023/06/01 02:05:23;;;;;;;10.50;7.13;;;15.10;99.90;;;;;;2095763;28;20028;-72
2023/06/01 02:06:23;;;;;;;9.93;8.95;;;15.10;99.90;;;;;;2091703;28;20021;-72
2023/06/01 02:07:24;;;;;;;12.35;9.50;;;15.10;99.90;;;;;;2091628;28;20032;-72
2023/06/01 02:08:24;;;;;;;12.23;8.63;;;15.00;99.90;;;;;;2090544;28;20028;-72
2023/06/01 02:09:25;;;;;;;11.77;8.73;;;15.00;99.90;;;;;;2093476;28;20032;-72
2023/06/01 02:10:25;;;;;;;16.73;10.57;;;15.00;99.90;;;;;;2090461;28;20464;-72
2023/06/01 02:11:26;;;;;;;13.32;10.13;;;15.00;99.90;;;;;;2092134;28;20477;-72
2023/06/01 02:12:26;;;;;;;18.35;10.52;;;14.90;99.90;;;;;;2095650;28;20028;-72
2023/06/01 02:13:27;;;;;;;10.95;8.52;;;14.90;99.90;;;;;;2095199;28;20049;-72
2023/06/01 02:14:28;;;;;;;14.63;9.55;;;14.90;99.90;;;;;;2094146;28;20017;-72
2023/06/01 02:15:29;;;;;;;10.60;8.93;;;14.90;99.90;;;;;;2092835;28;20964;-72
2023/06/01 02:16:29;;;;;;;14.30;9.40;;;14.90;99.90;;;;;;2093084;28;20048;-72
2023/06/01 02:17:30;;;;;;;11.82;9.38;;;14.90;99.90;;;;;;2095329;28;20028;-72
2023/06/01 02:18:31;;;;;;;13.20;9.55;;;14.90;99.90;;;;;;2090415;28;20025;-72
2023/06/01 02:19:32;;;;;;;14.77;10.80;;;14.80;99.90;;;;;;2094052;28;20865;-72
2023/06/01 02:20:33;;;;;;;15.90;9.95;;;14.80;99.90;;;;;;2090140;28;20568;-72
2023/06/01 02:21:33;;;;;;;13.68;10.68;;;14.80;99.90;;;;;;2091980;28;20040;-72
2023/06/01 02:22:34;;;;;;;14.85;10.50;;;14.80;99.90;;;;;;2092377;28;20481;-72
2023/06/01 02:23:35;;;;;;;15.27;11.80;;;14.80;99.90;;;;;;2091070;28;20514;-72
2023/06/01 02:24:35;;;;;;;12.02;10.32;;;14.70;99.90;;;;;;2092474;28;20024;-73
2023/06/01 02:25:36;;;;;;;13.15;9.38;;;14.70;99.90;;;;;;2091869;28;20136;-73
2023/06/01 02:26:36;;;;;;;13.70;9.60;;;14.70;99.90;;;;;;2091897;28;20025;-72
2023/06/01 02:27:37;;;;;;;15.43;11.02;;;14.70;99.90;;;;;;2092369;28;20021;-72
2023/06/01 02:28:39;;;;;;;14.27;11.30;;;14.60;99.90;;;;;;2093256;28;20040;-72
2023/06/01 02:29:39;;;;;;;15.30;11.35;;;14.60;99.90;;;;;;2091012;28;20112;-72
2023/06/01 02:30:40;;;;;;;18.02;11.27;;;14.60;99.90;;;;;;2095271;28;20054;-72
2023/06/01 02:31:40;;;;;;;18.33;12.77;;;14.60;99.90;;;;;;2094436;28;20540;-72
2023/06/01 02:32:44;;;;;;;14.52;9.52;;;14.50;99.90;;;;;;2091607;28;20109;-72
2023/06/01 02:33:45;;;;;;;13.95;11.65;;;14.50;99.90;;;;;;2091762;28;20064;-72
2023/06/01 02:34:45;;;;;;;18.15;12.43;;;14.50;99.90;;;;;;2090234;28;20040;-72
2023/06/01 02:35:46;;;;;;;16.10;12.65;;;14.40;99.90;;;;;;2092591;28;20061;-71
2023/06/01 02:36:49;;;;;;;20.70;14.75;;;14.40;99.90;;;;;;2092151;28;20031;-72
2023/06/01 02:37:50;;;;;;;18.90;13.73;;;14.40;99.90;;;;;;2090761;28;20036;-72
2023/06/01 02:38:50;;;;;;;15.45;13.05;;;14.30;99.90;;;;;;2091065;28;20024;-71
2023/06/01 02:39:51;;;;;;;18.60;12.98;;;14.30;99.90;;;;;;2091754;28;20036;-72
2023/06/01 02:40:52;;;;;;;21.20;14.98;;;14.30;99.90;;;;;;2090571;28;20123;-72
2023/06/01 02:41:52;;;;;;;19.90;15.15;;;14.20;99.90;;;;;;2090765;28;20054;-72
2023/06/01 02:42:53;;;;;;;17.73;13.45;;;14.20;99.90;;;;;;2089183;28;20039;-72
2023/06/01 02:43:53;;;;;;;16.40;14.35;;;14.20;99.90;;;;;;2091603;28;20032;-71
2023/06/01 02:44:54;;;;;;;22.05;14.82;;;14.10;99.90;;;;;;2090713;28;20056;-72
2023/06/01 02:45:55;;;;;;;20.27;14.55;;;14.10;99.90;;;;;;2090682;28;20575;-72
2023/06/01 02:46:56;;;;;;;20.73;14.70;;;14.10;99.90;;;;;;2091880;28;20504;-72
2023/06/01 02:47:56;;;;;;;20.05;15.40;;;14.10;99.90;;;;;;2094537;28;20392;-72
2023/06/01 02:48:57;;;;;;;20.75;14.38;;;14.00;99.90;;;;;;2093002;28;20468;-72
2023/06/01 02:49:57;;;;;;;20.45;15.02;;;14.00;99.90;;;;;;2091099;28;20058;-72
2023/06/01 02:50:58;;;;;;;21.15;15.63;;;14.00;99.90;;;;;;2092610;28;20028;-72
2023/06/01 02:51:58;;;;;;;16.48;14.77;;;14.00;99.90;;;;;;2090955;28;20181;-72
2023/06/01 02:52:59;;;;;;;21.98;15.43;;;14.00;99.90;;;;;;2091276;28;20036;-72
2023/06/01 02:54:00;;;;;;;19.90;14.32;;;14.00;99.90;;;;;;2089208;28;20025;-72
2023/06/01 02:55:00;;;;;;;19.05;15.02;;;14.00;99.90;;;;;;2091171;28;20063;-72
2023/06/01 02:56:01;;;;;;;22.60;16.20;;;13.90;99.90;;;;;;2088618;28;20064;-72
2023/06/01 02:57:01;;;;;;;24.42;14.88;;;13.90;99.90;;;;;;2090491;28;20021;-71
2023/06/01 02:58:02;;;;;;;19.40;14.77;;;13.90;99.90;;;;;;2092314;28;20099;-72
2023/06/01 02:59:03;;;;;;;22.52;13.63;;;13.90;99.90;;;;;;2091956;28;20151;-72
2023/06/01 03:00:04;;;;;;;17.63;12.70;;;13.90;99.90;;;;;;2091156;28;20119;-72
2023/06/01 03:01:05;;;;;;;21.73;14.05;;;13.90;99.90;;;;;;2089664;28;20416;-72
2023/06/01 03:02:06;;;;;;;17.80;14.15;;;13.90;99.90;;;;;;2093093;28;20017;-72
2023/06/01 03:03:07;;;;;;;19.38;14.95;;;13.90;99.90;;;;;;2089876;28;20025;-72
2023/06/01 03:04:08;;;;;;;21.00;14.40;;;13.80;99.90;;;;;;2093265;28;20164;-72
2023/06/01 03:05:09;;;;;;;18.00;14.80;;;13.80;99.90;;;;;;2091358;28;20021;-72
2023/06/01 03:06:10;;;;;;;15.85;13.55;;;13.80;99.90;;;;;;2093260;28;20017;-72
2023/06/01 03:07:10;;;;;;;17.85;14.10;;;13.80;99.90;;;;;;2094644;28;20046;-72
2023/06/01 03:08:11;;;;;;;16.13;14.10;;;13.80;99.90;;;;;;2090737;28;20032;-72
2023/06/01 03:09:12;;;;;;;16.13;12.45;;;13.80;99.90;;;;;;2089666;28;20029;-72
2023/06/01 03:10:13;;;;;;;19.65;13.00;;;13.80;99.90;;;;;;2092064;28;20043;-72
2023/06/01 03:11:13;;;;;;;17.23;14.10;;;13.80;99.90;;;;;;2085629;28;20072;-72
2023/06/01 03:12:14;;;;;;;18.00;13.77;;;13.80;99.90;;;;;;2090884;28;20479;-72
2023/06/01 03:13:15;;;;;;;16.08;13.57;;;13.80;99.90;;;;;;2090425;28;20403;-72
2023/06/01 03:14:15;;;;;;;18.77;13.82;;;13.70;99.90;;;;;;2090404;28;20037;-72
2023/06/01 03:15:16;;;;;;;16.77;13.05;;;13.80;99.90;;;;;;2091726;28;20078;-72
2023/06/01 03:16:17;;;;;;;17.65;14.00;;;13.80;99.90;;;;;;2090788;28;20028;-71
2023/06/01 03:17:17;;;;;;;25.85;16.05;;;13.70;99.90;;;;;;2090990;28;20028;-72
2023/06/01 03:18:18;;;;;;;19.90;14.13;;;13.70;99.90;;;;;;2092066;28;20091;-72
2023/06/01 03:19:18;;;;;;;17.70;15.80;;;13.70;99.90;;;;;;2092236;28;20025;-72
2023/06/01 03:20:19;;;;;;;21.58;14.73;;;13.70;99.90;;;;;;2089773;28;20387;-72
2023/06/01 03:21:20;;;;;;;19.20;14.18;;;13.60;99.90;;;;;;2090945;28;20026;-72
2023/06/01 03:22:20;;;;;;;18.70;12.27;;;13.60;99.90;;;;;;2089547;28;20107;-72
2023/06/01 03:23:21;;;;;;;17.35;13.60;;;13.60;99.90;;;;;;2093975;28;20542;-72
2023/06/01 03:24:27;;;;;;;16.17;13.73;;;13.60;99.90;;;;;;2094688;28;20028;-72
2023/06/01 03:25:28;;;;;;;17.20;13.90;;;13.50;99.90;;;;;;2093905;28;20025;-72
2023/06/01 03:26:29;;;;;;;18.02;14.38;;;13.50;99.90;;;;;;2092754;28;20017;-72
2023/06/01 03:27:29;;;;;;;17.55;14.68;;;13.50;99.90;;;;;;2093161;28;20029;-71
2023/06/01 03:28:30;;;;;;;16.52;13.75;;;13.50;99.90;;;;;;2092664;28;20163;-72
2023/06/01 03:29:30;;;;;;;15.07;13.15;;;13.50;99.90;;;;;;2094070;28;20438;-72
2023/06/01 03:30:31;;;;;;;17.83;14.32;;;13.50;99.90;;;;;;2091169;28;20088;-72
2023/06/01 03:31:34;;;;;;;16.50;12.98;;;13.50;99.90;;;;;;2090895;28;20489;-72
2023/06/01 03:32:34;;;;;;;15.57;12.93;;;13.50;99.90;;;;;;2093572;28;20066;-72
2023/06/01 03:33:35;;;;;;;17.05;12.73;;;13.50;99.90;;;;;;2091569;28;20171;-72
2023/06/01 03:34:36;;;;;;;17.33;12.38;;;13.50;99.90;;;;;;2092452;28;20036;-72
2023/06/01 03:35:37;;;;;;;16.17;12.23;;;13.50;99.90;;;;;;2093411;28;20511;-72
2023/06/01 03:36:37;;;;;;;16.27;13.00;;;13.40;99.90;;;;;;2093817;28;20460;-72
2023/06/01 03:37:41;;;;;;;16.38;12.73;;;13.50;99.90;;;;;;2088930;28;20017;-72
2023/06/01 03:38:42;;;;;;;14.73;11.88;;;13.50;99.90;;;;;;2092954;28;20021;-72
2023/06/01 03:39:43;;;;;;;14.38;11.15;;;13.40;99.90;;;;;;2091175;28;20082;-72
2023/06/01 03:40:44;;;;;;;14.63;12.48;;;13.40;99.90;;;;;;2091088;28;20071;-72
2023/06/01 03:41:44;;;;;;;14.70;12.05;;;13.40;99.90;;;;;;2090197;28;20071;-71
2023/06/01 03:42:47;;;;;;;14.82;12.25;;;13.40;99.90;;;;;;2091611;28;20028;-72
2023/06/01 03:43:47;;;;;;;15.85;12.00;;;13.40;99.90;;;;;;2093675;28;20021;-71
2023/06/01 03:44:48;;;;;;;17.05;12.70;;;13.30;99.90;;;;;;2093806;28;20094;-72
2023/06/01 03:45:48;;;;;;;17.27;12.52;;;13.30;99.90;;;;;;2090813;28;20055;-72
2023/06/01 03:46:49;;;;;;;13.25;11.80;;;13.30;99.90;;;;;;2090564;28;20095;-71
2023/06/01 03:47:50;;;;;;;17.20;12.50;;;13.30;99.90;;;;;;2089816;28;20150;-72
2023/06/01 03:48:51;;;;;;;14.43;11.73;;;13.30;99.90;;;;;;2092086;28;20029;-72
2023/06/01 03:49:52;;;;;;;18.10;12.25;;;13.30;99.90;;;;;;2089351;28;20021;-72
2023/06/01 03:50:52;;;;;;;20.83;13.95;;;13.30;99.90;;;;;;2089854;28;20032;-72
2023/06/01 03:51:53;;;;;;;16.55;11.82;;;13.30;99.90;;;;;;2091412;28;20465;-72
2023/06/01 03:52:53;;;;;;;17.10;11.77;;;13.30;99.90;;;;;;2091210;28;20146;-72
2023/06/01 03:53:54;;;;;;;17.95;12.05;;;13.30;99.90;;;;;;2092203;28;20111;-72
2023/06/01 03:54:56;;;;;;;17.33;12.95;;;13.30;99.90;;;;;;2091919;28;20143;-72
2023/06/01 03:55:56;;;;;;;14.63;12.52;;;13.30;99.90;;;;;;2091050;28;20042;-72
2023/06/01 03:56:57;;;;;;;14.25;11.43;;;13.30;99.90;;;;;;2090362;28;20540;-72
2023/06/01 03:57:57;;;;;;;17.27;12.32;;;13.30;99.90;;;;;;2090611;28;20035;-72
2023/06/01 03:58:58;;;;;;;13.50;12.18;;;13.30;99.90;;;;;;2089693;28;20111;-72
2023/06/01 04:00:00;;;;;;;16.17;12.45;;;13.30;99.90;;;;;;2089253;28;20062;-72
2023/06/01 04:01:00;;;;;;;14.63;12.20;;;13.30;99.90;;;;;;2090496;28;20760;-72
2023/06/01 04:02:02;;;;;;;16.27;11.93;;;13.20;99.90;;;;;;2093368;28;20069;-72
2023/06/01 04:03:06;;;;;;;16.15;12.73;;;13.20;99.90;;;;;;2083868;28;20096;-72
2023/06/01 04:04:08;;;;;;;13.90;12.43;;;13.20;99.90;;;;;;2088711;28;20040;-72
2023/06/01 04:05:13;;;;;;;19.75;12.73;;;13.20;99.90;;;;;;2091601;28;20024;-72
2023/06/01 04:06:17;;;;;;;14.88;12.70;;;13.20;99.90;;;;;;2092617;28;20021;-72
2023/06/01 04:07:21;;;;;;;15.80;12.05;;;13.20;99.90;;;;;;2092311;28;20060;-72
2023/06/01 04:08:22;;;;;;;16.25;12.27;;;13.20;99.90;;;;;;2092162;28;20024;-72
2023/06/01 04:09:22;;;;;;;15.30;12.43;;;13.20;99.90;;;;;;2091639;28;20078;-72
2023/06/01 04:10:23;;;;;;;16.88;12.13;;;13.20;99.90;;;;;;2092009;28;20035;-72
2023/06/01 04:11:23;;;;;;;13.50;11.75;;;13.20;99.90;;;;;;2092714;28;20788;-72
2023/06/01 04:12:24;;;;;;;17.60;12.63;;;13.20;99.90;;;;;;2092385;28;20028;-72
2023/06/01 04:13:25;;;;;;;14.10;11.38;;;13.20;99.90;;;;;;2093549;28;20016;-72
2023/06/01 04:14:25;;;;;;;13.45;11.70;;;13.20;99.90;;;;;;2093349;28;20476;-72
2023/06/01 04:15:26;;;;;;;15.90;12.23;;;13.30;99.90;;;;;;2092138;28;20111;-72
2023/06/01 04:16:27;;;;;;;11.93;10.48;;;13.30;99.90;;;;;;2093089;28;20020;-72
2023/06/01 04:17:27;;;;;;;11.07;9.63;;;13.30;99.90;;;;;;2091320;28;20036;-72
2023/06/01 04:18:28;;;;;;;17.08;12.32;;;13.30;99.90;;;;;;2091932;28;20024;-72
2023/06/01 04:19:28;;;;;;;14.15;11.15;;;13.30;99.90;;;;;;2093546;28;20111;-72
2023/06/01 04:20:31;;;;;;;14.73;11.85;;;13.30;99.90;;;;;;2094429;28;20031;-72
2023/06/01 04:21:32;;;;;;;16.15;12.25;;;13.40;99.90;;;;;;2093071;28;20013;-72
2023/06/01 04:22:33;;;;;;;14.02;10.45;;;13.40;99.90;;;;;;2093065;28;20020;-72
2023/06/01 04:23:37;;;;;;;17.30;11.90;;;13.40;99.90;;;;;;2090750;28;20045;-72
2023/06/01 04:24:37;;;;;;;20.58;13.68;;;13.40;99.90;;;;;;2092477;28;20135;-72
2023/06/01 04:25:39;;;;;;;18.00;14.30;;;13.40;99.90;;;;;;2093241;28;20036;-72
2023/06/01 04:26:39;;;;;;;18.77;13.80;;;13.40;99.90;;;;;;2094222;28;20056;-72
2023/06/01 04:27:45;;;;;;;16.98;13.55;;;13.40;99.90;;;;;;2095555;28;20036;-72
2023/06/01 04:28:48;;;;;;;16.77;13.30;;;13.40;99.90;;;;;;2091951;28;20028;-72
2023/06/01 04:29:48;;;;;;;13.25;11.68;;;13.40;99.90;;;;;;2091476;28;20017;-72
2023/06/01 04:30:51;;;;;;;13.70;11.70;;;13.50;99.90;;;;;;2093030;28;20032;-72
2023/06/01 04:31:54;;;;;;;16.95;12.35;;;13.50;99.90;;;;;;2094336;28;20023;-72
2023/06/01 04:32:55;;;;;;;20.23;12.85;;;13.50;99.90;;;;;;2092313;28;20503;-72
2023/06/01 04:33:56;;;;;;;16.92;14.05;;;13.40;99.90;;;;;;2093070;28;20111;-72
2023/06/01 04:34:56;;;;;;;19.63;15.93;;;13.50;99.90;;;;;;2093461;28;20043;-71
2023/06/01 04:35:57;;;;;;;19.70;16.40;;;13.50;99.90;;;;;;2094360;28;20592;-72
2023/06/01 04:36:59;;;;;;;20.17;16.60;;;13.50;99.90;;;;;;2094730;28;20031;-72
2023/06/01 04:37:59;;;;;;;20.55;15.95;;;13.40;99.90;;;;;;2092117;28;20020;-72
2023/06/01 04:39:01;;;;;;;18.00;15.63;;;13.40;99.90;;;;;;2091737;28;20017;-72
2023/06/01 04:40:07;;;;;;;19.67;16.33;;;13.50;99.90;;;;;;2092522;28;20081;-72
2023/06/01 04:41:10;;;;;;;17.15;15.05;;;13.40;99.90;;;;;;2091980;28;20384;-71
2023/06/01 04:42:13;;;;;;;16.50;14.70;;;13.40;99.90;;;;;;2091795;28;20036;-72
2023/06/01 04:43:18;;;;;;;17.88;15.63;;;13.40;99.90;;;;;;2091873;28;20024;-71
2023/06/01 04:44:21;;;;;;;21.90;14.23;;;13.40;99.90;;;;;;2092917;28;20103;-71
2023/06/01 04:45:23;;;;;;;17.98;14.88;;;13.40;99.90;;;;;;2093809;28;20020;-72
2023/06/01 04:46:26;;;;;;;17.95;15.32;;;13.30;99.90;;;;;;2092281;28;20132;-72
2023/06/01 04:47:27;;;;;;;18.42;14.88;;;13.30;99.90;;;;;;2094408;28;20037;-71
2023/06/01 04:48:30;;;;;;;18.48;15.15;;;13.30;99.90;;;;;;2087171;28;20024;-72
2023/06/01 04:49:31;;;;;;;18.25;16.25;;;13.30;99.90;;;;;;2089876;28;20040;-72
2023/06/01 04:50:31;;;;;;;20.42;16.48;;;13.30;99.90;;;;;;2097826;28;20029;-71
2023/06/01 04:51:33;;;;;;;19.65;17.27;;;13.30;99.90;;;;;;2092457;28;20025;-72
2023/06/01 04:52:33;;;;;;;20.75;16.35;;;13.20;99.90;;;;;;2091717;28;20024;-72
2023/06/01 04:53:34;;;;;;;21.17;16.80;;;13.20;99.90;;;;;;2091665;28;20100;-71
2023/06/01 04:54:35;;;;;;;22.85;17.80;;;13.20;99.90;;;;;;2093911;28;20133;-72
2023/06/01 04:55:35;;;;;;;21.05;16.70;;;13.20;99.90;;;;;;2093117;28;20029;-72
2023/06/01 04:56:36;;;;;;;25.88;20.95;;;13.20;99.90;;;;;;2093039;28;20077;-72
2023/06/01 04:57:38;;;;;;;25.35;20.08;;;13.20;99.90;;;;;;2090060;28;20083;-72
2023/06/01 04:58:39;;;;;;;21.83;19.52;;;13.20;99.90;;;;;;2091068;28;20114;-72
2023/06/01 04:59:42;;;;;;;24.17;18.77;;;13.20;99.90;;;;;;2097062;28;20126;-72
2023/06/01 05:00:43;;;;;;;23.92;18.95;;;13.30;99.90;;;;;;2097251;28;20106;-72
2023/06/01 05:01:43;;;;;;;21.27;18.50;;;13.20;99.90;;;;;;2094759;28;20774;-72
2023/06/01 05:02:46;;;;;;;24.77;18.20;;;13.30;99.90;;;;;;2091774;28;20098;-72
2023/06/01 05:03:46;;;;;;;23.38;17.38;;;13.20;99.90;;;;;;2092662;28;20039;-71
2023/06/01 05:04:47;;;;;;;18.35;16.17;;;13.30;99.90;;;;;;2093809;28;20017;-71
2023/06/01 05:05:47;;;;;;;21.67;15.50;;;13.30;99.90;;;;;;2095184;28;20082;-72
2023/06/01 05:06:48;;;;;;;17.40;12.77;;;13.30;99.90;;;;;;2094031;28;20500;-72
2023/06/01 05:07:49;;;;;;;19.10;15.02;;;13.30;99.90;;;;;;2095962;28;20488;-72
2023/06/01 05:08:49;;;;;;;15.93;13.30;;;13.30;99.90;;;;;;2091572;28;20413;-72
2023/06/01 05:09:50;;;;;;;18.52;14.18;;;13.30;99.90;;;;;;2092371;28;20060;-72
2023/06/01 05:10:50;;;;;;;17.13;13.60;;;13.30;99.90;;;;;;2091449;28;20031;-72
2023/06/01 05:11:51;;;;;;;18.08;15.00;;;13.30;99.90;;;;;;2092379;28;20056;-71
2023/06/01 05:12:52;;;;;;;16.92;13.55;;;13.30;99.90;;;;;;2093258;28;20496;-71
2023/06/01 05:13:54;;;;;;;17.75;14.90;;;13.30;99.90;;;;;;2093039;28;21036;-71
2023/06/01 05:14:55;;;;;;;19.83;15.23;;;13.30;99.90;;;;;;2093113;28;20028;-72
2023/06/01 05:15:55;;;;;;;19.02;15.93;;;13.20;99.90;;;;;;2090956;28;20032;-72
2023/06/01 05:16:56;;;;;;;22.58;18.88;;;13.20;99.90;;;;;;2093623;28;20608;-72
2023/06/01 05:17:56;;;;;;;22.35;18.95;;;13.20;99.90;;;;;;2090901;28;20054;-72
2023/06/01 05:18:57;;;;;;;25.15;22.08;;;13.30;99.90;;;;;;2091858;28;20032;-72
2023/06/01 05:19:57;;;;;;;27.35;19.98;;;13.20;99.90;;;;;;2090351;28;20029;-72